createdAt,value
2023-04-23T00:02:30.174Z,62.44
2023-04-23T00:05:06.282Z,62.82
2023-04-23T00:07:37.344Z,62.33
2023-04-23T00:10:09.205Z,63.07
2023-04-23T00:12:38.369Z,62.64
2023-04-23T00:15:08.069Z,62.91
2023-04-23T00:17:35.896Z,63.20
2023-04-23T00:20:04.863Z,62.90
2023-04-23T00:22:33.002Z,63.00
2023-04-23T00:25:02.350Z,63.42
2023-04-23T00:27:31.000Z,63.45
2023-04-23T00:29:59.213Z,63.17
2023-04-23T00:32:27.447Z,63.61
2023-04-23T00:34:57.259Z,63.06
2023-04-23T00:37:25.420Z,64.03
2023-04-23T00:39:53.639Z,63.77
2023-04-23T00:42:23.985Z,63.45
2023-04-23T00:44:53.518Z,63.57
2023-04-23T00:47:22.076Z,63.81
2023-04-23T00:49:51.893Z,63.93
2023-04-23T00:52:20.170Z,63.75
2023-04-23T00:54:48.170Z,63.35
2023-04-23T00:57:17.467Z,63.75
2023-04-23T00:59:47.704Z,63.00
2023-04-23T01:02:16.110Z,62.98
2023-04-23T01:10:26.824Z,62.99
2023-04-23T01:12:55.390Z,63.21
2023-04-23T01:15:25.176Z,63.19
2023-04-23T01:17:53.817Z,63.48
2023-04-23T01:20:22.359Z,63.46
2023-04-23T01:22:53.233Z,63.39
2023-04-23T01:25:21.617Z,63.06
2023-04-23T01:27:51.122Z,63.83
2023-04-23T01:30:19.698Z,64.05
2023-04-23T01:32:48.512Z,63.40
2023-04-23T01:35:17.580Z,63.83
2023-04-23T01:37:46.954Z,63.55
2023-04-23T01:40:16.821Z,63.52
2023-04-23T01:42:45.599Z,63.23
2023-04-23T01:45:14.031Z,63.57
2023-04-23T01:47:42.864Z,63.99
2023-04-23T01:50:11.997Z,63.79
2023-04-23T01:52:40.445Z,63.59
2023-04-23T01:55:09.507Z,63.84
2023-04-23T01:57:39.678Z,63.19
2023-04-23T02:00:11.181Z,63.22
2023-04-23T02:02:41.009Z,63.26
2023-04-23T02:05:12.799Z,62.95
2023-04-23T02:07:41.793Z,62.87
2023-04-23T02:10:11.335Z,63.31
2023-04-23T02:12:41.953Z,63.20
2023-04-23T02:15:11.666Z,63.24
2023-04-23T02:17:40.377Z,62.93
2023-04-23T02:20:11.385Z,62.97
2023-04-23T02:22:40.386Z,62.69
2023-04-23T02:25:09.618Z,62.95
2023-04-23T02:27:38.863Z,62.54
2023-04-23T02:30:10.171Z,62.39
2023-04-23T02:32:39.007Z,62.50
2023-04-23T02:35:08.299Z,61.98
2023-04-23T02:37:37.151Z,62.51
2023-04-23T02:40:07.272Z,62.12
2023-04-23T02:42:35.851Z,62.40
2023-04-23T02:45:03.931Z,61.83
2023-04-23T02:47:34.118Z,62.31
2023-04-23T02:50:05.913Z,62.23
2023-04-23T02:52:34.907Z,62.05
2023-04-23T02:55:03.884Z,61.75
2023-04-23T02:57:32.379Z,61.68
2023-04-23T03:00:01.653Z,61.31
2023-04-23T03:02:29.765Z,61.83
2023-04-23T03:04:59.361Z,61.71
2023-04-23T03:07:28.250Z,61.52
2023-04-23T03:09:56.294Z,62.06
2023-04-23T03:12:24.545Z,61.93
2023-04-23T03:14:53.061Z,61.72
2023-04-23T03:17:21.166Z,61.43
2023-04-23T03:19:49.481Z,61.65
2023-04-23T03:22:19.727Z,62.13
2023-04-23T03:24:48.033Z,62.21
2023-04-23T03:27:16.478Z,62.42
2023-04-23T03:29:45.048Z,62.38
2023-04-23T03:32:13.295Z,61.90
2023-04-23T03:34:41.676Z,62.51
2023-04-23T03:37:10.402Z,62.44
2023-04-23T03:39:39.942Z,61.79
2023-04-23T03:42:08.020Z,61.93
2023-04-23T03:44:36.659Z,62.36
2023-04-23T03:47:05.093Z,61.75
2023-04-23T03:49:33.224Z,62.33
2023-04-23T03:52:01.859Z,61.70
2023-04-23T03:54:30.387Z,61.66
2023-04-23T03:57:00.695Z,61.86
2023-04-23T03:59:29.284Z,61.92
2023-04-23T04:01:58.512Z,61.76
2023-04-23T04:04:27.306Z,62.08
2023-04-23T04:06:56.007Z,61.99
2023-04-23T04:09:24.177Z,62.07
2023-04-23T04:11:53.311Z,61.63
2023-04-23T04:14:23.835Z,62.16
2023-04-23T04:16:51.961Z,62.06
2023-04-23T04:19:19.765Z,61.87
2023-04-23T04:21:48.293Z,61.92
2023-04-23T04:24:16.621Z,62.08
2023-04-23T04:26:45.734Z,62.03
2023-04-23T04:29:15.448Z,62.23
2023-04-23T04:31:44.696Z,62.49
2023-04-23T04:34:14.945Z,62.08
2023-04-23T04:36:44.110Z,62.24
2023-04-23T04:39:13.622Z,62.23
2023-04-23T04:41:42.977Z,62.39
2023-04-23T04:44:11.965Z,62.45
2023-04-23T04:46:40.660Z,62.38
2023-04-23T04:49:11.840Z,61.92
2023-04-23T04:51:41.333Z,62.53
2023-04-23T04:54:09.929Z,62.03
2023-04-23T04:56:38.931Z,62.16
2023-04-23T04:59:07.155Z,62.46
2023-04-23T05:01:36.378Z,61.94
2023-04-23T05:04:05.844Z,62.42
2023-04-23T05:06:35.067Z,62.21
2023-04-23T05:09:02.961Z,61.78
2023-04-23T05:11:31.968Z,61.74
2023-04-23T05:14:00.421Z,62.25
2023-04-23T05:16:28.842Z,61.84
2023-04-23T05:18:58.010Z,62.44
2023-04-23T05:21:27.588Z,62.37
2023-04-23T05:23:57.943Z,62.17
2023-04-23T05:26:26.145Z,61.80
2023-04-23T05:28:54.529Z,61.71
2023-04-23T05:31:22.839Z,62.07
2023-04-23T05:33:51.069Z,62.42
2023-04-23T05:36:19.783Z,62.20
2023-04-23T05:38:48.917Z,62.12
2023-04-23T05:41:18.737Z,61.55
2023-04-23T05:43:47.026Z,62.42
2023-04-23T05:46:15.838Z,61.43
2023-04-23T05:48:44.108Z,61.90
2023-04-23T05:51:12.691Z,61.67
2023-04-23T05:53:41.756Z,61.97
2023-04-23T05:56:09.944Z,61.91
2023-04-23T05:58:39.860Z,61.43
2023-04-23T06:01:08.385Z,61.18
2023-04-23T06:03:37.831Z,61.84
2023-04-23T06:06:07.326Z,61.24
2023-04-23T06:08:35.663Z,61.50
2023-04-23T06:11:04.025Z,61.28
2023-04-23T06:13:32.497Z,60.86
2023-04-23T06:16:03.067Z,60.61
2023-04-23T06:18:31.339Z,60.63
2023-04-23T06:21:05.019Z,60.23
2023-04-23T06:23:33.606Z,60.13
2023-04-23T06:26:01.977Z,59.93
2023-04-23T06:28:30.845Z,59.63
2023-04-23T06:30:59.148Z,59.61
2023-04-23T06:33:28.888Z,59.31
2023-04-23T06:35:57.641Z,59.57
2023-04-23T06:38:25.852Z,59.44
2023-04-23T06:40:54.361Z,59.28
2023-04-23T06:43:23.058Z,58.80
2023-04-23T06:45:50.982Z,58.66
2023-04-23T06:48:19.368Z,58.48
2023-04-23T06:50:49.624Z,58.56
2023-04-23T06:53:18.051Z,58.65
2023-04-23T06:55:46.869Z,58.41
2023-04-23T06:58:16.221Z,58.48
2023-04-23T07:00:44.941Z,58.05
2023-04-23T07:03:13.325Z,57.66
2023-04-23T07:05:41.937Z,57.53
2023-04-23T07:08:11.801Z,57.51
2023-04-23T07:10:40.040Z,57.36
2023-04-23T07:13:08.681Z,57.27
2023-04-23T07:15:38.124Z,57.31
2023-04-23T07:18:07.293Z,56.95
2023-04-23T07:20:35.923Z,57.07
2023-04-23T07:23:04.380Z,56.80
2023-04-23T07:25:34.023Z,56.57
2023-04-23T07:28:02.868Z,56.34
2023-04-23T07:30:32.022Z,56.60
2023-04-23T07:33:01.120Z,55.78
2023-04-23T07:35:29.762Z,55.88
2023-04-23T07:37:58.046Z,56.42
2023-04-23T07:40:26.435Z,56.09
2023-04-23T07:42:56.132Z,55.74
2023-04-23T07:45:23.910Z,55.42
2023-04-23T07:47:51.897Z,56.28
2023-04-23T07:50:20.203Z,55.32
2023-04-23T07:52:48.110Z,55.00
2023-04-23T07:55:15.988Z,54.92
2023-04-23T07:57:44.192Z,54.47
2023-04-23T08:00:14.458Z,55.05
2023-04-23T08:02:42.752Z,54.33
2023-04-23T08:05:11.821Z,54.04
2023-04-23T08:07:39.753Z,54.06
2023-04-23T08:10:08.632Z,53.53
2023-04-23T08:12:37.026Z,53.83
2023-04-23T08:15:06.853Z,53.99
2023-04-23T08:17:36.063Z,53.92
2023-04-23T08:20:06.988Z,54.24
2023-04-23T08:22:34.886Z,54.06
2023-04-23T08:25:02.756Z,54.28
2023-04-23T08:27:31.147Z,53.63
2023-04-23T08:29:58.951Z,53.66
2023-04-23T08:32:26.925Z,53.58
2023-04-23T08:34:56.669Z,52.82
2023-04-23T08:37:30.714Z,52.96
2023-04-23T08:39:59.999Z,52.79
2023-04-23T08:42:37.314Z,52.61
2023-04-23T08:45:06.860Z,53.05
2023-04-23T08:47:35.655Z,53.67
2023-04-23T08:50:05.854Z,53.21
2023-04-23T08:52:36.589Z,53.06
2023-04-23T08:55:10.603Z,53.07
2023-04-23T08:57:42.316Z,52.90
2023-04-23T09:00:11.976Z,52.58
2023-04-23T09:02:42.704Z,52.21
2023-04-23T09:05:14.579Z,52.58
2023-04-23T09:07:44.058Z,52.83
2023-04-23T09:10:15.359Z,53.27
2023-04-23T09:12:45.751Z,53.72
2023-04-23T09:15:14.356Z,52.06
2023-04-23T09:17:44.044Z,53.09
2023-04-23T09:20:15.327Z,52.78
2023-04-23T09:22:46.536Z,52.76
2023-04-23T09:25:17.407Z,52.63
2023-04-23T09:27:45.672Z,52.13
2023-04-23T09:30:14.805Z,51.94
2023-04-23T09:32:44.442Z,52.05
2023-04-23T09:35:15.119Z,52.83
2023-04-23T09:37:43.821Z,52.08
2023-04-23T09:40:15.979Z,52.30
2023-04-23T09:42:49.489Z,52.05
2023-04-23T09:45:18.023Z,51.91
2023-04-23T09:47:51.248Z,51.99
2023-04-23T09:50:21.719Z,51.70
2023-04-23T09:52:57.198Z,51.68
2023-04-23T09:55:35.842Z,50.84
2023-04-23T09:58:05.542Z,51.66
2023-04-23T10:00:37.653Z,52.32
2023-04-23T10:03:08.986Z,50.34
2023-04-23T10:08:16.092Z,50.86
2023-04-23T10:11:02.427Z,50.08
2023-04-23T10:13:35.741Z,50.14
2023-04-23T10:16:20.494Z,50.44
2023-04-23T10:18:52.012Z,49.82
2023-04-23T10:21:33.933Z,50.20
2023-04-23T10:24:11.114Z,50.38
2023-04-23T10:26:41.301Z,49.73
2023-04-23T10:29:14.347Z,49.52
2023-04-23T10:31:44.184Z,49.04
2023-04-23T10:34:12.461Z,49.30
2023-04-23T10:36:42.188Z,49.21
2023-04-23T10:39:10.860Z,49.28
2023-04-23T10:41:40.816Z,48.64
2023-04-23T10:44:15.986Z,48.97
2023-04-23T10:46:53.459Z,49.16
2023-04-23T10:49:24.762Z,48.57
2023-04-23T10:54:35.454Z,48.91
2023-04-23T10:57:05.260Z,48.80
2023-04-23T10:59:34.822Z,48.75
2023-04-23T11:02:08.191Z,49.90
2023-04-23T11:04:38.561Z,48.85
2023-04-23T11:07:09.670Z,48.85
2023-04-23T11:09:40.925Z,47.76
2023-04-23T11:12:12.144Z,47.30
2023-04-23T11:14:47.513Z,47.13
2023-04-23T11:17:17.751Z,47.34
2023-04-23T11:20:10.415Z,46.76
2023-04-23T11:22:41.639Z,46.29
2023-04-23T11:25:12.085Z,46.81
2023-04-23T11:27:42.273Z,46.91
2023-04-23T11:30:14.327Z,46.31
2023-04-23T11:32:44.086Z,46.35
2023-04-23T11:35:14.505Z,46.34
2023-04-23T11:37:46.258Z,46.58
2023-04-23T11:40:18.875Z,45.94
2023-04-23T11:42:48.083Z,45.14
2023-04-23T11:45:20.480Z,45.62
2023-04-23T11:47:51.349Z,45.32
2023-04-23T11:50:20.488Z,46.35
2023-04-23T11:52:50.518Z,47.14
2023-04-23T11:55:19.608Z,47.46
2023-04-23T11:57:49.531Z,47.90
2023-04-23T12:00:19.972Z,49.50
2023-04-23T12:02:56.100Z,49.93
2023-04-23T12:05:29.158Z,51.06
2023-04-23T12:08:08.825Z,51.43
2023-04-23T12:10:44.786Z,51.97
2023-04-23T12:13:17.110Z,52.31
2023-04-23T12:15:50.654Z,52.79
2023-04-23T12:18:19.837Z,53.47
2023-04-23T12:20:48.201Z,53.13
2023-04-23T12:23:18.582Z,53.84
2023-04-23T12:25:46.697Z,53.59
2023-04-23T12:28:14.947Z,53.66
2023-04-23T12:30:46.946Z,54.73
2023-04-23T12:33:15.704Z,54.84
2023-04-23T12:35:47.331Z,54.33
2023-04-23T12:38:27.651Z,54.60
2023-04-23T12:40:58.533Z,54.64
2023-04-23T12:43:28.006Z,54.71
2023-04-23T12:45:56.407Z,55.47
2023-04-23T12:48:25.317Z,55.44
2023-04-23T12:50:53.586Z,55.37
2023-04-23T12:53:21.838Z,55.41
2023-04-23T12:55:51.516Z,55.82
2023-04-23T12:58:19.291Z,54.85
2023-04-23T13:00:47.690Z,55.85
2023-04-23T13:03:18.020Z,55.49
2023-04-23T13:05:46.173Z,55.94
2023-04-23T13:08:14.385Z,56.21
2023-04-23T13:10:42.588Z,56.33
2023-04-23T13:13:11.715Z,56.62
2023-04-23T13:15:39.521Z,57.06
2023-04-23T13:18:07.809Z,56.50
2023-04-23T13:20:35.657Z,56.79
2023-04-23T13:23:03.809Z,57.10
2023-04-23T13:25:31.833Z,57.02
2023-04-23T13:27:59.620Z,56.94
2023-04-23T13:30:28.789Z,57.19
2023-04-23T13:32:57.828Z,57.17
2023-04-23T13:35:25.933Z,57.54
2023-04-23T13:37:53.751Z,57.29
2023-04-23T13:40:22.002Z,57.39
2023-04-23T13:42:51.038Z,57.68
2023-04-23T13:45:19.065Z,57.35
2023-04-23T13:47:48.841Z,57.54
2023-04-23T13:50:16.723Z,57.47
2023-04-23T13:52:44.533Z,57.24
2023-04-23T13:55:12.732Z,57.76
2023-04-23T13:57:40.984Z,57.74
2023-04-23T14:00:09.938Z,58.10
2023-04-23T14:02:37.821Z,58.05
2023-04-23T14:05:08.944Z,58.26
2023-04-23T14:07:37.474Z,58.52
2023-04-23T14:10:05.842Z,58.73
2023-04-23T14:12:33.726Z,58.98
2023-04-23T14:15:02.078Z,58.92
2023-04-23T14:17:29.854Z,58.87
2023-04-23T14:19:57.645Z,58.78
2023-04-23T14:22:27.513Z,59.04
2023-04-23T14:24:58.583Z,59.60
2023-04-23T14:27:26.386Z,58.69
2023-04-23T14:30:06.455Z,59.17
2023-04-23T14:32:34.205Z,58.98
2023-04-23T14:35:03.390Z,58.61
2023-04-23T14:37:32.722Z,58.90
2023-04-23T14:40:00.507Z,58.42
2023-04-23T14:42:28.250Z,58.78
2023-04-23T14:45:00.279Z,58.54
2023-04-23T14:47:28.101Z,58.46
2023-04-23T14:49:57.478Z,58.78
2023-04-23T14:52:25.759Z,58.67
2023-04-23T14:54:55.874Z,57.97
2023-04-23T14:57:23.761Z,57.74
2023-04-23T14:59:51.777Z,57.16
2023-04-23T15:02:19.682Z,57.20
2023-04-23T15:04:47.548Z,57.52
2023-04-23T15:07:15.571Z,57.41
2023-04-23T15:09:43.743Z,57.36
2023-04-23T15:12:38.624Z,57.83
2023-04-23T15:15:08.172Z,57.30
2023-04-23T15:17:35.939Z,57.21
2023-04-23T15:20:04.169Z,57.26
2023-04-23T15:22:31.914Z,57.01
2023-04-23T15:24:59.696Z,57.24
2023-04-23T15:27:29.140Z,57.22
2023-04-23T15:29:57.582Z,57.37
2023-04-23T15:32:25.329Z,57.40
2023-04-23T15:34:53.311Z,57.26
2023-04-23T15:37:23.544Z,57.00
2023-04-23T15:39:51.803Z,57.26
2023-04-23T15:42:24.595Z,57.39
2023-04-23T15:44:55.832Z,57.36
2023-04-23T15:47:23.876Z,57.17
2023-04-23T15:49:52.260Z,57.26
2023-04-23T15:52:20.233Z,57.29
2023-04-23T15:54:48.100Z,57.03
2023-04-23T15:57:16.344Z,57.07
2023-04-23T15:59:44.446Z,56.99
2023-04-23T16:02:13.804Z,57.09
2023-04-23T16:04:42.809Z,57.15
2023-04-23T16:07:10.851Z,56.74
2023-04-23T16:09:38.772Z,56.68
2023-04-23T16:12:08.895Z,56.67
2023-04-23T16:14:37.981Z,56.80
2023-04-23T16:17:05.883Z,56.99
2023-04-23T16:19:35.911Z,57.53
2023-04-23T16:22:03.726Z,57.18
2023-04-23T16:24:31.545Z,56.76
2023-04-23T16:27:00.034Z,56.68
2023-04-23T16:29:27.854Z,56.10
2023-04-23T16:31:55.629Z,56.36
2023-04-23T16:34:23.930Z,56.13
2023-04-23T16:36:53.147Z,56.71
2023-04-23T16:39:21.024Z,56.66
2023-04-23T16:41:49.340Z,56.55
2023-04-23T16:44:17.203Z,56.90
2023-04-23T16:46:45.708Z,56.89
2023-04-23T16:49:14.348Z,56.64
2023-04-23T16:51:42.160Z,56.74
2023-04-23T16:54:11.414Z,57.05
2023-04-23T16:56:39.891Z,56.85
2023-04-23T16:59:07.987Z,56.58
2023-04-23T17:01:35.800Z,56.95
2023-04-23T17:04:04.571Z,56.20
2023-04-23T17:06:33.574Z,56.65
2023-04-23T17:09:03.159Z,56.77
2023-04-23T17:11:33.299Z,56.88
2023-04-23T17:14:01.077Z,57.40
2023-04-23T17:16:29.086Z,57.31
2023-04-23T17:18:57.657Z,57.67
2023-04-23T17:21:25.855Z,57.89
2023-04-23T17:23:53.713Z,58.25
2023-04-23T17:26:21.938Z,58.33
2023-04-23T17:28:51.229Z,58.21
2023-04-23T17:31:19.602Z,58.81
2023-04-23T17:33:49.446Z,58.85
2023-04-23T17:36:17.892Z,58.46
2023-04-23T17:38:45.910Z,58.69
2023-04-23T17:41:13.956Z,58.80
2023-04-23T17:43:41.766Z,58.73
2023-04-23T17:46:10.969Z,58.43
2023-04-23T17:48:39.465Z,58.96
2023-04-23T17:51:07.517Z,59.48
2023-04-23T17:53:35.276Z,59.62
2023-04-23T17:56:03.802Z,60.01
2023-04-23T17:58:32.303Z,60.18
2023-04-23T18:01:00.260Z,61.49
2023-04-23T18:03:30.772Z,61.15
2023-04-23T18:05:58.799Z,61.19
2023-04-23T18:08:27.037Z,62.29
2023-04-23T18:10:55.510Z,62.94
2023-04-23T18:13:23.398Z,62.60
2023-04-23T18:15:51.222Z,63.25
2023-04-23T18:18:21.830Z,63.03
2023-04-23T18:20:52.025Z,63.27
2023-04-23T18:23:22.322Z,63.41
2023-04-23T18:25:50.502Z,63.49
2023-04-23T18:28:18.337Z,63.44
2023-04-23T18:30:46.353Z,63.05
2023-04-23T18:33:27.071Z,62.85
2023-04-23T18:35:59.514Z,63.06
2023-04-23T18:38:32.197Z,63.75
2023-04-23T18:41:02.985Z,62.98
2023-04-23T18:43:31.772Z,63.59
2023-04-23T18:45:59.662Z,63.37
2023-04-23T18:48:47.470Z,63.92
2023-04-23T18:51:22.989Z,63.82
2023-04-23T18:53:51.008Z,63.16
2023-04-23T18:56:18.792Z,63.15
2023-04-23T18:58:46.592Z,63.38
2023-04-23T19:01:14.993Z,64.26
2023-04-23T19:03:43.058Z,63.70
2023-04-23T19:06:11.021Z,64.34
2023-04-23T19:08:42.100Z,64.58
2023-04-23T19:11:09.858Z,64.08
2023-04-23T19:13:37.625Z,64.57
2023-04-23T19:16:05.789Z,64.64
2023-04-23T19:18:33.808Z,64.43
2023-04-23T19:21:01.600Z,64.59
2023-04-23T19:23:29.580Z,65.26
2023-04-23T19:25:58.737Z,64.89
2023-04-23T19:28:26.500Z,65.12
2023-04-23T19:30:54.667Z,65.14
2023-04-23T19:33:22.498Z,65.30
2023-04-23T19:35:50.485Z,64.73
2023-04-23T19:38:18.578Z,65.28
2023-04-23T19:40:46.391Z,64.75
2023-04-23T19:43:15.606Z,64.79
2023-04-23T19:45:43.915Z,64.70
2023-04-23T19:48:11.762Z,64.89
2023-04-23T19:50:39.581Z,65.29
2023-04-23T19:53:07.413Z,64.74
2023-04-23T19:55:35.294Z,64.97
2023-04-23T19:58:06.253Z,64.49
2023-04-23T20:00:40.871Z,64.41
2023-04-23T20:03:09.664Z,64.81
2023-04-23T20:05:37.589Z,64.67
2023-04-23T20:08:11.946Z,64.23
2023-04-23T20:10:39.734Z,64.34
2023-04-23T20:13:07.615Z,64.68
2023-04-23T20:15:36.858Z,64.78
2023-04-23T20:18:04.878Z,64.71
2023-04-23T20:20:33.939Z,64.75
2023-04-23T20:23:01.859Z,64.79
2023-04-23T20:25:29.684Z,64.28
2023-04-23T20:27:57.823Z,64.82
2023-04-23T20:30:26.175Z,64.94
2023-04-23T20:32:55.330Z,65.02
2023-04-23T20:35:23.181Z,65.24
2023-04-23T20:37:53.326Z,65.28
2023-04-23T20:40:21.205Z,65.15
2023-04-23T20:42:51.563Z,65.34
2023-04-23T20:45:20.817Z,65.72
2023-04-23T20:47:50.103Z,64.95
2023-04-23T20:50:19.377Z,64.51
2023-04-23T20:52:47.378Z,64.64
2023-04-23T20:55:15.325Z,64.60
2023-04-23T20:57:43.116Z,63.83
2023-04-23T21:00:12.844Z,64.26
2023-04-23T21:02:40.911Z,63.51
2023-04-23T21:05:09.485Z,63.07
2023-04-23T21:07:38.914Z,63.51
2023-04-23T21:10:07.707Z,62.65
2023-04-23T21:12:36.073Z,61.93
2023-04-23T21:15:04.590Z,62.37
2023-04-23T21:17:32.404Z,62.13
2023-04-23T21:20:00.220Z,62.76
2023-04-23T21:22:27.999Z,62.25
2023-04-23T21:24:57.173Z,61.73
2023-04-23T21:27:24.942Z,62.01
2023-04-23T21:29:53.324Z,61.44
2023-04-23T21:32:21.200Z,61.57
2023-04-23T21:34:48.974Z,62.20
2023-04-23T21:37:17.295Z,61.86
2023-04-23T21:39:45.089Z,61.42
2023-04-23T21:42:14.342Z,61.66
2023-04-23T21:44:42.629Z,62.16
2023-04-23T21:47:10.513Z,61.99
2023-04-23T21:49:38.314Z,61.74
2023-04-23T21:52:06.881Z,61.64
2023-04-23T21:54:34.642Z,61.96
2023-04-23T21:57:02.658Z,61.86
2023-04-23T21:59:32.362Z,61.69
2023-04-23T22:01:59.954Z,61.74
2023-04-23T22:04:29.221Z,61.87
2023-04-23T22:07:02.803Z,61.56
2023-04-23T22:09:30.594Z,61.74
2023-04-23T22:12:02.169Z,61.76
2023-04-23T22:14:32.572Z,61.75
2023-04-23T22:17:01.944Z,61.52
2023-04-23T22:19:31.093Z,61.82
2023-04-23T22:21:59.996Z,61.53
2023-04-23T22:24:28.993Z,62.02
2023-04-23T22:26:58.026Z,61.85
2023-04-23T22:29:26.474Z,61.94
2023-04-23T22:31:55.674Z,61.59
2023-04-23T22:34:24.888Z,61.99
2023-04-23T22:36:53.292Z,62.54
2023-04-23T22:39:21.134Z,62.14
2023-04-23T22:41:48.957Z,61.99
2023-04-23T22:44:17.323Z,61.75
2023-04-23T22:46:45.766Z,62.07
2023-04-23T22:49:15.043Z,61.67
2023-04-23T22:51:44.330Z,61.96
2023-04-23T22:54:12.126Z,61.87
2023-04-23T22:56:39.911Z,62.00
2023-04-23T22:59:08.600Z,61.84
2023-04-23T23:01:36.485Z,61.31
2023-04-23T23:04:04.280Z,61.62
2023-04-23T23:06:34.166Z,61.80
2023-04-23T23:09:01.965Z,61.60
2023-04-23T23:11:29.777Z,61.58
2023-04-23T23:13:58.136Z,61.86
2023-04-23T23:16:26.664Z,61.83
2023-04-23T23:18:54.595Z,61.65
2023-04-23T23:21:22.942Z,61.51
2023-04-23T23:23:52.288Z,61.94
2023-04-23T23:26:21.297Z,62.04
2023-04-23T23:28:49.647Z,61.84
2023-04-23T23:31:18.271Z,61.69
2023-04-23T23:33:46.452Z,61.93
2023-04-23T23:36:14.730Z,61.93
2023-04-23T23:38:42.498Z,61.85
2023-04-23T23:41:11.755Z,61.72
2023-04-23T23:43:40.024Z,62.08
2023-04-23T23:46:09.131Z,61.68
2023-04-23T23:48:37.213Z,62.11
2023-04-23T23:51:05.890Z,61.79
2023-04-23T23:53:33.688Z,62.11
2023-04-23T23:56:01.509Z,62.06
2023-04-23T23:58:31.272Z,62.34
